createdAt,value
2023-07-16T00:00:22.470Z,100374.35
2023-07-16T00:05:31.508Z,100380.80
2023-07-16T00:10:39.239Z,100377.41
2023-07-16T00:15:46.705Z,100366.23
2023-07-16T00:20:52.303Z,100362.77
2023-07-16T00:25:59.403Z,100357.72
2023-07-16T00:31:06.657Z,100348.50
2023-07-16T00:36:12.265Z,100339.27
2023-07-16T00:41:19.420Z,100332.14
2023-07-16T00:46:27.838Z,100330.69
2023-07-16T00:51:35.050Z,100324.30
2023-07-16T00:56:42.368Z,100323.48
2023-07-16T01:01:49.772Z,100324.35
2023-07-16T01:06:58.015Z,100324.55
2023-07-16T01:12:07.310Z,100323.05
2023-07-16T01:17:14.485Z,100317.30
2023-07-16T01:22:43.560Z,100309.81
2023-07-16T01:28:25.312Z,100309.30
2023-07-16T01:33:34.242Z,100319.58
2023-07-16T01:38:41.657Z,100322.09
2023-07-16T01:43:48.882Z,100319.41
2023-07-16T01:48:56.082Z,100318.05
2023-07-16T01:54:03.141Z,100317.85
2023-07-16T01:59:11.826Z,100305.97
2023-07-16T02:04:19.018Z,100292.19
2023-07-16T02:09:26.584Z,100281.08
2023-07-16T02:14:33.831Z,100279.71
2023-07-16T02:19:39.515Z,100286.44
2023-07-16T02:24:46.947Z,100288.61
2023-07-16T02:29:54.341Z,100285.93
2023-07-16T02:35:01.490Z,100278.34
2023-07-16T02:40:12.769Z,100275.30
2023-07-16T02:45:23.588Z,100281.90
2023-07-16T02:50:30.763Z,100279.34
2023-07-16T02:55:38.369Z,100273.89
2023-07-16T03:00:45.599Z,100274.88
2023-07-16T03:05:52.774Z,100279.17
2023-07-16T03:10:59.795Z,100285.81
2023-07-16T03:16:06.015Z,100283.76
2023-07-16T03:21:13.133Z,100284.69
2023-07-16T03:26:20.251Z,100280.11
2023-07-16T03:31:29.728Z,100279.00
2023-07-16T03:36:37.730Z,100278.65
2023-07-16T03:41:45.013Z,100280.70
2023-07-16T03:46:52.602Z,100268.05
2023-07-16T03:51:59.909Z,100261.70
2023-07-16T03:57:08.776Z,100265.67
2023-07-16T04:02:16.066Z,100267.26
2023-07-16T04:07:23.347Z,100264.18
2023-07-16T04:12:28.904Z,100268.10
2023-07-16T04:17:36.324Z,100271.54
2023-07-16T04:22:43.516Z,100266.91
2023-07-16T04:27:48.977Z,100266.30
2023-07-16T04:32:56.261Z,100260.94
2023-07-16T04:38:03.527Z,100270.74
2023-07-16T04:43:09.101Z,100271.39
2023-07-16T04:48:16.260Z,100317.84
2023-07-16T04:53:24.193Z,100353.33
2023-07-16T04:58:31.401Z,100357.19
2023-07-16T05:03:36.941Z,100348.10
2023-07-16T05:08:45.500Z,100364.20
2023-07-16T05:13:53.988Z,100373.60
2023-07-16T05:19:01.062Z,100360.17
2023-07-16T05:24:08.740Z,100357.35
2023-07-16T05:29:15.817Z,100352.29
2023-07-16T05:34:22.974Z,100350.45
2023-07-16T05:39:30.093Z,100347.94
2023-07-16T05:44:38.311Z,100363.64
2023-07-16T05:49:46.101Z,100366.22
2023-07-16T05:54:53.337Z,100371.08
2023-07-16T06:00:00.591Z,100373.41
2023-07-16T06:05:09.035Z,100372.79
2023-07-16T06:10:16.709Z,100385.64
2023-07-16T06:15:24.396Z,100400.31
2023-07-16T06:20:31.579Z,100407.65
2023-07-16T06:25:38.901Z,100417.04
2023-07-16T06:30:46.026Z,100430.55
2023-07-16T06:35:53.397Z,100432.82
2023-07-16T06:41:00.807Z,100437.45
2023-07-16T06:46:08.060Z,100441.67
2023-07-16T06:51:15.169Z,100444.54
2023-07-16T06:56:22.370Z,100440.67
2023-07-16T07:01:30.220Z,100443.83
2023-07-16T07:06:37.336Z,100441.16
2023-07-16T07:11:44.506Z,100450.14
2023-07-16T07:16:51.613Z,100467.91
2023-07-16T07:21:58.982Z,100474.39
2023-07-16T07:27:07.147Z,100465.64
2023-07-16T07:32:14.601Z,100471.64
2023-07-16T07:37:22.038Z,100474.68
2023-07-16T07:42:31.146Z,100480.44
2023-07-16T07:47:38.522Z,100488.84
2023-07-16T07:52:45.686Z,100489.41
2023-07-16T07:57:52.918Z,100487.07
2023-07-16T08:03:02.994Z,100488.86
2023-07-16T08:08:10.310Z,100499.33
2023-07-16T08:13:17.511Z,100504.92
2023-07-16T08:18:24.879Z,100518.08
2023-07-16T08:23:32.583Z,100519.76
2023-07-16T08:28:41.237Z,100510.61
2023-07-16T08:33:50.768Z,100490.20
2023-07-16T08:38:57.914Z,100491.71
2023-07-16T08:44:05.175Z,100511.14
2023-07-16T08:49:13.488Z,100523.08
2023-07-16T08:54:21.230Z,100534.25
2023-07-16T08:59:28.903Z,100547.46
2023-07-16T09:04:36.857Z,100552.43
2023-07-16T09:09:44.050Z,100577.42
2023-07-16T09:14:52.016Z,100598.33
2023-07-16T09:19:59.196Z,100614.70
2023-07-16T09:25:06.815Z,100624.31
2023-07-16T09:30:19.060Z,100637.66
2023-07-16T09:35:26.447Z,100647.75
2023-07-16T09:40:34.065Z,100649.11
2023-07-16T09:45:41.652Z,100659.85
2023-07-16T09:50:55.271Z,100671.80
2023-07-16T09:56:06.699Z,100669.09
2023-07-16T10:01:14.528Z,100664.73
2023-07-16T10:06:21.986Z,100670.21
2023-07-16T10:11:29.255Z,100685.44
2023-07-16T10:16:41.463Z,100698.43
2023-07-16T10:21:49.483Z,100711.52
2023-07-16T10:26:56.639Z,100707.92
2023-07-16T10:32:04.308Z,100709.69
2023-07-16T10:37:11.545Z,100683.16
2023-07-16T10:42:19.600Z,100671.48
2023-07-16T10:47:31.803Z,100678.64
2023-07-16T10:52:39.884Z,100687.29
2023-07-16T10:57:47.304Z,100694.27
2023-07-16T11:02:55.539Z,100684.69
2023-07-16T11:08:02.953Z,100692.27
2023-07-16T11:13:10.131Z,100696.30
2023-07-16T11:18:17.428Z,100687.47
2023-07-16T11:23:25.540Z,100694.75
2023-07-16T11:28:40.902Z,100696.56
2023-07-16T11:33:48.649Z,100678.69
2023-07-16T11:38:56.208Z,100678.20
2023-07-16T11:44:05.050Z,100674.30
2023-07-16T11:49:12.168Z,100676.92
2023-07-16T11:54:19.566Z,100679.50
2023-07-16T11:59:26.867Z,100676.46
2023-07-16T12:04:34.057Z,100681.73
2023-07-16T12:09:41.734Z,100685.25
2023-07-16T12:14:48.858Z,100683.02
2023-07-16T12:20:11.320Z,100682.89
2023-07-16T12:25:21.207Z,100680.86
2023-07-16T12:30:28.439Z,100683.61
2023-07-16T12:35:35.721Z,100683.33
2023-07-16T12:40:43.059Z,100685.63
2023-07-16T12:45:50.263Z,100685.39
2023-07-16T12:50:58.135Z,100682.86
2023-07-16T12:56:05.294Z,100680.43
2023-07-16T13:01:12.623Z,100677.59
2023-07-16T13:06:20.058Z,100680.77
2023-07-16T13:11:28.112Z,100684.33
2023-07-16T13:16:35.358Z,100687.56
2023-07-16T13:21:42.598Z,100697.80
2023-07-16T13:26:49.762Z,100696.01
2023-07-16T13:31:57.457Z,100696.79
2023-07-16T13:37:05.018Z,100692.95
2023-07-16T13:42:22.507Z,100689.33
2023-07-16T13:47:30.826Z,100685.66
2023-07-16T13:52:38.849Z,100685.55
2023-07-16T13:57:47.007Z,100688.69
2023-07-16T14:02:55.767Z,100695.92
2023-07-16T14:08:03.079Z,100690.98
2023-07-16T14:13:10.383Z,100688.56
2023-07-16T14:18:17.657Z,100684.41
2023-07-16T14:23:25.079Z,100684.70
2023-07-16T14:28:32.467Z,100684.25
2023-07-16T14:33:41.019Z,100684.58
2023-07-16T14:38:48.252Z,100684.15
2023-07-16T14:43:57.657Z,100687.28
2023-07-16T14:49:12.321Z,100683.90
2023-07-16T14:54:22.139Z,100678.58
2023-07-16T14:59:29.330Z,100676.55
2023-07-16T15:04:39.618Z,100670.24
2023-07-16T15:10:00.272Z,100661.91
2023-07-16T15:15:09.377Z,100665.88
2023-07-16T15:20:21.521Z,100659.63
2023-07-16T15:25:29.450Z,100654.76
2023-07-16T15:30:36.994Z,100649.67
2023-07-16T15:35:47.226Z,100650.00
2023-07-16T15:40:58.136Z,100645.06
2023-07-16T15:46:05.921Z,100635.88
2023-07-16T15:51:13.266Z,100629.41
2023-07-16T15:56:20.374Z,100627.65
2023-07-16T16:01:28.424Z,100630.88
2023-07-16T16:06:36.985Z,100633.05
2023-07-16T16:11:46.590Z,100628.50
2023-07-16T16:17:06.325Z,100631.00
2023-07-16T16:22:14.511Z,100634.18
2023-07-16T16:27:21.722Z,100640.10
2023-07-16T16:32:28.976Z,100641.78
2023-07-16T16:37:36.184Z,100635.58
2023-07-16T16:42:45.142Z,100637.35
2023-07-16T16:47:52.995Z,100638.91
2023-07-16T16:53:00.719Z,100638.30
2023-07-16T16:58:09.316Z,100636.67
2023-07-16T17:03:16.716Z,100630.55
2023-07-16T17:08:23.920Z,100624.35
2023-07-16T17:13:35.260Z,100623.77
2023-07-16T17:18:44.430Z,100623.99
2023-07-16T17:23:51.760Z,100625.58
2023-07-16T17:28:59.059Z,100626.55
2023-07-16T17:34:06.782Z,100628.01
2023-07-16T17:39:15.120Z,100634.84
2023-07-16T17:44:22.484Z,100640.58
2023-07-16T17:49:30.035Z,100645.61
2023-07-16T17:54:37.288Z,100648.73
2023-07-16T17:59:45.334Z,100651.45
2023-07-16T18:04:54.526Z,100660.27
2023-07-16T18:10:03.935Z,100661.13
2023-07-16T18:15:13.361Z,100675.37
2023-07-16T18:20:21.050Z,100681.34
2023-07-16T18:25:28.815Z,100678.30
2023-07-16T18:30:36.122Z,100684.30
2023-07-16T18:35:46.795Z,100685.32
2023-07-16T18:40:54.044Z,100689.86
2023-07-16T18:46:01.307Z,100693.83
2023-07-16T18:51:08.737Z,100696.12
2023-07-16T18:56:16.380Z,100702.67
2023-07-16T19:01:23.711Z,100708.71
2023-07-16T19:06:31.093Z,100713.67
2023-07-16T19:11:38.962Z,100720.70
2023-07-16T19:16:46.367Z,100721.65
2023-07-16T19:21:53.752Z,100730.55
2023-07-16T19:27:01.176Z,100734.64
2023-07-16T19:32:09.964Z,100736.02
2023-07-16T19:37:17.266Z,100737.64
2023-07-16T19:42:25.816Z,100739.30
2023-07-16T19:47:35.098Z,100743.68
2023-07-16T19:52:42.507Z,100750.89
2023-07-16T19:57:50.065Z,100751.85
2023-07-16T20:02:57.291Z,100751.38
2023-07-16T20:08:07.021Z,100757.27
2023-07-16T20:13:14.196Z,100761.39
2023-07-16T20:18:21.706Z,100760.14
2023-07-16T20:23:29.483Z,100762.34
2023-07-16T20:28:36.824Z,100764.11
2023-07-16T20:33:44.065Z,100770.43
2023-07-16T20:38:51.238Z,100775.92
2023-07-16T20:43:58.650Z,100786.00
2023-07-16T20:49:05.982Z,100790.09
2023-07-16T20:54:13.281Z,100797.09
2023-07-16T20:59:18.910Z,100801.33
2023-07-16T21:04:26.105Z,100799.88
2023-07-16T21:09:31.668Z,100802.42
2023-07-16T21:14:38.849Z,100808.89
2023-07-16T21:19:44.525Z,100809.52
2023-07-16T21:24:51.840Z,100810.50
2023-07-16T21:29:57.896Z,100814.54
2023-07-16T21:35:06.184Z,100812.80
2023-07-16T21:40:14.047Z,100816.33
2023-07-16T21:45:21.581Z,100825.88
2023-07-16T21:50:29.250Z,100826.20
2023-07-16T21:55:36.279Z,100829.86
2023-07-16T22:00:43.395Z,100830.35
2023-07-16T22:05:50.563Z,100824.10
2023-07-16T22:10:57.710Z,100819.91
2023-07-16T22:16:05.249Z,100823.41
2023-07-16T22:21:12.754Z,100823.88
2023-07-16T22:26:19.272Z,100826.94
2023-07-16T22:31:27.158Z,100829.79
2023-07-16T22:36:34.324Z,100828.92
2023-07-16T22:41:41.834Z,100825.52
2023-07-16T22:46:47.400Z,100828.45
2023-07-16T22:51:54.617Z,100833.50
2023-07-16T22:57:01.892Z,100838.20
2023-07-16T23:02:09.216Z,100835.18
2023-07-16T23:07:16.362Z,100836.45
2023-07-16T23:12:24.070Z,100843.36
2023-07-16T23:17:31.153Z,100849.75
2023-07-16T23:22:39.164Z,100855.15
2023-07-16T23:27:46.452Z,100852.41
2023-07-16T23:32:53.526Z,100858.84
2023-07-16T23:38:02.015Z,100860.91
2023-07-16T23:43:09.139Z,100862.84
2023-07-16T23:48:16.563Z,100859.86
2023-07-16T23:53:22.207Z,100858.09
2023-07-16T23:58:29.305Z,100865.05
